createdAt,value
2023-02-03T00:02:04.936Z,5.33
2023-02-03T00:04:31.355Z,4.33
2023-02-03T00:06:57.762Z,6.67
2023-02-03T00:09:24.128Z,4.33
2023-02-03T00:11:50.592Z,5.67
2023-02-03T00:14:17.041Z,5.33
2023-02-03T00:16:43.459Z,4.33
2023-02-03T00:19:09.963Z,5.33
2023-02-03T00:21:36.346Z,5.00
2023-02-03T00:24:02.724Z,4.67
2023-02-03T00:26:29.107Z,4.00
2023-02-03T00:28:55.475Z,3.00
2023-02-03T00:31:22.052Z,4.33
2023-02-03T00:33:48.554Z,3.00
2023-02-03T00:36:15.811Z,3.75
2023-02-03T00:38:42.191Z,4.33
2023-02-03T00:41:08.607Z,3.67
2023-02-03T00:43:34.998Z,3.33
2023-02-03T00:46:01.497Z,2.67
2023-02-03T00:48:27.928Z,3.00
2023-02-03T00:50:54.304Z,2.00
2023-02-03T00:53:20.678Z,3.00
2023-02-03T00:55:47.048Z,2.00
2023-02-03T00:58:13.412Z,4.00
2023-02-03T01:00:39.785Z,3.00
2023-02-03T01:03:06.189Z,2.00
2023-02-03T01:05:32.593Z,3.33
2023-02-03T01:07:58.942Z,2.00
2023-02-03T01:10:25.593Z,5.00
2023-02-03T01:12:52.129Z,1.67
2023-02-03T01:15:18.604Z,3.67
2023-02-03T01:17:44.959Z,2.00
2023-02-03T01:20:11.345Z,3.00
2023-02-03T01:22:37.702Z,3.00
2023-02-03T01:25:04.125Z,2.00
2023-02-03T01:27:30.502Z,2.67
2023-02-03T01:29:56.884Z,2.00
2023-02-03T01:32:23.309Z,2.00
2023-02-03T01:34:49.647Z,2.00
2023-02-03T01:37:15.990Z,2.33
2023-02-03T01:39:42.374Z,2.00
2023-02-03T01:42:11.532Z,1.83
2023-02-03T01:44:40.756Z,2.50
2023-02-03T01:47:07.159Z,3.00
2023-02-03T01:49:33.503Z,1.67
2023-02-03T01:51:59.889Z,1.67
2023-02-03T01:54:26.237Z,3.00
2023-02-03T01:56:55.417Z,2.00
2023-02-03T01:59:21.787Z,2.00
2023-02-03T02:01:48.230Z,1.33
2023-02-03T02:04:14.613Z,1.00
2023-02-03T02:06:40.986Z,2.00
2023-02-03T02:09:07.403Z,3.00
2023-02-03T02:11:36.594Z,0.67
2023-02-03T02:14:05.776Z,1.17
2023-02-03T02:16:34.926Z,0.50
2023-02-03T02:19:01.357Z,1.33
2023-02-03T02:21:30.507Z,1.33
2023-02-03T02:23:56.849Z,1.00
2023-02-03T02:26:26.010Z,1.00
2023-02-03T02:28:55.146Z,1.00
2023-02-03T02:31:21.592Z,2.00
2023-02-03T02:33:50.783Z,0.50
2023-02-03T02:36:17.156Z,2.00
2023-02-03T02:38:43.476Z,2.00
2023-02-03T02:41:09.859Z,1.00
2023-02-03T02:43:38.995Z,1.00
2023-02-03T02:46:05.387Z,1.00
2023-02-03T02:48:34.551Z,0.50
2023-02-03T02:51:03.682Z,0.50
2023-02-03T02:53:32.840Z,0.83
2023-02-03T02:55:59.167Z,0.00
2023-02-03T02:58:28.329Z,1.50
2023-02-03T03:00:57.477Z,0.17
2023-02-03T03:03:26.687Z,0.33
2023-02-03T03:05:55.833Z,0.83
2023-02-03T03:08:24.989Z,0.50
2023-02-03T03:10:54.147Z,0.50
2023-02-03T03:13:20.509Z,0.00
2023-02-03T03:15:46.960Z,1.00
2023-02-03T03:18:13.342Z,1.00
2023-02-03T03:20:39.674Z,1.00
2023-02-03T03:23:06.021Z,0.67
2023-02-03T03:25:32.374Z,1.00
2023-02-03T03:28:01.600Z,0.50
2023-02-03T03:30:30.820Z,0.50
2023-02-03T03:32:57.146Z,1.00
2023-02-03T03:35:23.491Z,1.33
2023-02-03T03:37:52.614Z,0.50
2023-02-03T03:40:19.016Z,1.00
2023-02-03T03:42:48.156Z,0.00
2023-02-03T03:45:14.686Z,1.00
2023-02-03T03:47:43.835Z,1.00
2023-02-03T03:50:10.173Z,0.00
2023-02-03T03:52:39.331Z,1.33
2023-02-03T03:55:05.669Z,1.67
2023-02-03T03:57:34.811Z,1.17
2023-02-03T04:00:03.946Z,1.00
2023-02-03T04:02:33.229Z,1.17
2023-02-03T04:05:02.430Z,1.33
2023-02-03T04:07:28.774Z,2.00
2023-02-03T04:09:57.911Z,0.50
2023-02-03T04:12:27.055Z,1.00
2023-02-03T04:14:56.182Z,1.17
2023-02-03T04:17:25.529Z,0.50
2023-02-03T04:19:54.680Z,1.17
2023-02-03T04:22:21.059Z,1.33
2023-02-03T04:24:47.402Z,2.00
2023-02-03T04:27:13.757Z,2.33
2023-02-03T04:29:42.959Z,2.00
2023-02-03T04:32:09.340Z,2.00
2023-02-03T04:34:38.510Z,0.50
2023-02-03T04:37:04.871Z,2.00
2023-02-03T04:39:34.014Z,1.67
2023-02-03T04:42:00.404Z,2.67
2023-02-03T04:44:26.749Z,2.00
2023-02-03T04:46:53.165Z,1.33
2023-02-03T04:49:19.493Z,1.00
2023-02-03T04:51:45.819Z,1.67
2023-02-03T04:54:12.202Z,1.33
2023-02-03T04:56:38.580Z,2.00
2023-02-03T04:59:05.018Z,4.00
2023-02-03T05:01:31.365Z,2.00
2023-02-03T05:03:57.735Z,2.00
2023-02-03T05:06:26.870Z,2.00
2023-02-03T05:08:53.203Z,1.00
2023-02-03T05:11:19.589Z,2.33
2023-02-03T05:13:45.966Z,2.00
2023-02-03T05:16:12.409Z,2.00
2023-02-03T05:18:38.836Z,2.67
2023-02-03T05:21:05.214Z,3.00
2023-02-03T05:23:31.621Z,2.00
2023-02-03T05:25:57.962Z,1.67
2023-02-03T05:28:24.373Z,3.00
2023-02-03T05:30:53.572Z,1.67
2023-02-03T05:33:20.259Z,1.00
2023-02-03T05:35:46.699Z,2.67
2023-02-03T05:38:13.069Z,2.67
2023-02-03T05:40:39.428Z,2.00
2023-02-03T05:43:05.872Z,2.00
2023-02-03T05:45:32.245Z,3.00
2023-02-03T05:47:58.638Z,4.00
2023-02-03T05:50:25.212Z,1.67
2023-02-03T05:52:51.727Z,3.00
2023-02-03T05:55:18.099Z,1.67
2023-02-03T05:57:44.441Z,3.00
2023-02-03T06:00:10.868Z,2.00
2023-02-03T06:02:37.257Z,2.33
2023-02-03T06:05:03.635Z,2.00
2023-02-03T06:07:29.991Z,2.00
2023-02-03T06:09:59.156Z,3.50
2023-02-03T06:12:28.159Z,2.00
2023-02-03T06:14:57.457Z,2.00
2023-02-03T06:17:23.832Z,2.00
2023-02-03T06:19:50.691Z,2.00
2023-02-03T06:22:19.825Z,0.50
2023-02-03T06:24:46.154Z,0.33
2023-02-03T06:27:12.549Z,2.00
2023-02-03T06:29:41.690Z,0.67
2023-02-03T06:32:10.831Z,1.67
2023-02-03T06:34:37.203Z,2.00
2023-02-03T06:37:03.595Z,3.33
2023-02-03T06:39:30.072Z,18.50
2023-02-03T06:41:57.437Z,16.67
2023-02-03T06:44:24.808Z,17.00
2023-02-03T06:46:51.252Z,17.00
2023-02-03T06:49:17.676Z,11.50
2023-02-03T06:51:44.934Z,17.33
2023-02-03T06:54:11.459Z,12.00
2023-02-03T06:56:40.657Z,11.17
2023-02-03T06:59:07.243Z,12.00
2023-02-03T07:01:33.793Z,10.50
2023-02-03T07:04:00.309Z,13.00
2023-02-03T07:06:27.610Z,11.67
2023-02-03T07:08:54.904Z,11.50
2023-02-03T07:11:24.105Z,10.33
2023-02-03T07:13:52.401Z,12.00
2023-02-03T07:16:18.857Z,10.50
2023-02-03T07:18:47.960Z,9.75
2023-02-03T07:21:14.834Z,11.50
2023-02-03T07:23:41.305Z,10.00
2023-02-03T07:26:10.496Z,11.00
2023-02-03T07:28:37.039Z,10.00
2023-02-03T07:31:05.511Z,12.20
2023-02-03T07:33:32.078Z,15.00
2023-02-03T07:35:58.913Z,10.00
2023-02-03T07:38:25.352Z,11.00
2023-02-03T07:40:51.855Z,12.50
2023-02-03T07:43:20.302Z,10.60
2023-02-03T07:45:46.725Z,8.50
2023-02-03T07:48:16.710Z,12.86
2023-02-03T07:50:43.116Z,8.00
2023-02-03T07:53:13.335Z,11.29
2023-02-03T07:55:41.940Z,13.80
2023-02-03T07:58:10.475Z,16.00
2023-02-03T08:00:40.014Z,12.67
2023-02-03T08:03:08.675Z,14.60
2023-02-03T08:05:36.009Z,16.67
2023-02-03T08:08:03.353Z,11.67
2023-02-03T08:10:30.896Z,19.00
2023-02-03T08:12:58.406Z,16.00
2023-02-03T08:15:25.780Z,15.33
2023-02-03T08:17:52.249Z,16.50
2023-02-03T08:20:18.770Z,19.00
2023-02-03T08:22:46.144Z,17.00
2023-02-03T08:25:14.487Z,13.60
2023-02-03T08:27:41.099Z,15.00
2023-02-03T08:30:07.571Z,14.00
2023-02-03T08:32:34.839Z,15.00
2023-02-03T08:35:02.116Z,13.33
2023-02-03T08:37:30.545Z,15.40
2023-02-03T08:39:57.055Z,27.00
2023-02-03T08:42:23.562Z,35.00
2023-02-03T08:44:50.980Z,42.00
2023-02-03T08:47:17.463Z,47.00
2023-02-03T08:49:44.061Z,47.00
2023-02-03T08:52:10.565Z,53.50
2023-02-03T08:54:37.985Z,52.67
2023-02-03T08:57:05.438Z,54.33
2023-02-03T08:59:32.861Z,52.00
2023-02-03T09:01:59.384Z,54.00
2023-02-03T09:04:25.936Z,52.50
2023-02-03T09:06:52.466Z,58.00
2023-02-03T09:09:18.960Z,55.50
2023-02-03T09:11:45.523Z,58.00
2023-02-03T09:14:12.960Z,60.50
2023-02-03T09:16:39.461Z,55.50
2023-02-03T09:19:06.032Z,55.00
2023-02-03T09:21:40.214Z,55.00
2023-02-03T09:24:09.900Z,52.50
2023-02-03T09:26:37.334Z,56.00
2023-02-03T09:29:03.849Z,53.50
2023-02-03T09:31:31.379Z,53.67
2023-02-03T09:33:58.885Z,53.33
2023-02-03T09:36:25.357Z,48.00
2023-02-03T09:38:52.785Z,51.33
2023-02-03T09:41:19.275Z,46.50
2023-02-03T09:43:46.769Z,47.00
2023-02-03T09:46:14.234Z,50.00
2023-02-03T09:48:41.647Z,46.33
2023-02-03T09:51:08.136Z,41.50
2023-02-03T09:53:35.589Z,45.67
2023-02-03T09:56:03.022Z,44.00
2023-02-03T09:58:29.512Z,43.00
2023-02-03T10:00:56.084Z,70.00
2023-02-03T10:03:22.601Z,58.00
2023-02-03T10:05:49.219Z,53.00
2023-02-03T10:08:15.713Z,53.00
2023-02-03T10:10:43.113Z,47.33
2023-02-03T10:13:10.542Z,45.33
2023-02-03T10:15:37.027Z,34.00
2023-02-03T10:18:04.459Z,34.00
2023-02-03T10:20:30.995Z,30.00
2023-02-03T10:22:57.494Z,29.00
2023-02-03T10:25:23.978Z,22.00
2023-02-03T10:27:50.611Z,22.50
2023-02-03T10:30:17.095Z,22.00
2023-02-03T10:32:44.482Z,19.67
2023-02-03T10:35:10.961Z,19.50
2023-02-03T10:37:37.422Z,19.00
2023-02-03T10:40:04.813Z,20.00
2023-02-03T10:42:31.302Z,18.50
2023-02-03T10:44:58.585Z,18.00
2023-02-03T10:47:25.928Z,20.00
2023-02-03T10:49:53.222Z,14.33
2023-02-03T10:52:20.612Z,18.33
2023-02-03T10:54:47.948Z,15.33
2023-02-03T10:57:14.413Z,18.00
2023-02-03T10:59:41.649Z,14.00
2023-02-03T11:02:08.940Z,15.33
2023-02-03T11:04:35.359Z,13.00
2023-02-03T11:07:02.638Z,12.33
2023-02-03T11:09:29.113Z,13.50
2023-02-03T11:11:56.538Z,17.00
2023-02-03T11:14:23.823Z,19.00
2023-02-03T11:16:51.136Z,17.67
2023-02-03T11:19:18.450Z,16.00
2023-02-03T11:21:45.734Z,18.00
2023-02-03T11:24:12.194Z,15.50
2023-02-03T11:26:38.603Z,17.00
2023-02-03T11:29:07.777Z,13.00
2023-02-03T11:31:34.325Z,15.50
2023-02-03T11:34:02.743Z,15.00
2023-02-03T11:36:30.033Z,15.33
2023-02-03T11:38:57.265Z,13.67
2023-02-03T11:41:24.080Z,14.00
2023-02-03T11:43:50.603Z,16.00
2023-02-03T11:46:17.049Z,14.00
2023-02-03T11:48:43.474Z,15.50
2023-02-03T11:51:10.019Z,15.00
2023-02-03T11:53:51.218Z,12.33
2023-02-03T11:56:22.678Z,13.00
2023-02-03T11:58:51.889Z,10.50
2023-02-03T12:01:18.290Z,14.00
2023-02-03T12:03:47.479Z,12.17
2023-02-03T12:06:13.931Z,12.50
2023-02-03T12:08:42.210Z,11.40
2023-02-03T12:11:08.688Z,10.00
2023-02-03T12:13:35.144Z,13.50
2023-02-03T12:16:03.521Z,11.20
2023-02-03T12:18:30.795Z,12.25
2023-02-03T12:20:57.210Z,12.00
2023-02-03T12:23:23.913Z,13.00
2023-02-03T12:25:51.207Z,9.75
2023-02-03T12:28:32.565Z,9.83
2023-02-03T12:31:01.801Z,11.20
2023-02-03T12:33:28.198Z,9.00
2023-02-03T12:35:54.722Z,8.33
2023-02-03T12:38:21.109Z,9.67
2023-02-03T12:40:49.271Z,10.33
2023-02-03T12:43:15.867Z,11.50
2023-02-03T12:45:42.294Z,11.00
2023-02-03T12:48:08.736Z,11.00
2023-02-03T12:50:35.997Z,10.50
2023-02-03T12:53:02.354Z,9.00
2023-02-03T12:55:28.726Z,8.00
2023-02-03T12:57:55.159Z,9.67
2023-02-03T13:00:21.535Z,9.00
2023-02-03T13:02:47.933Z,7.00
2023-02-03T13:05:15.183Z,8.00
2023-02-03T13:07:41.606Z,7.00
2023-02-03T13:10:07.974Z,9.00
2023-02-03T13:12:35.229Z,10.25
2023-02-03T13:15:01.553Z,6.00
2023-02-03T13:17:27.904Z,7.67
2023-02-03T13:19:54.289Z,8.00
2023-02-03T13:22:21.510Z,8.00
2023-02-03T13:24:47.921Z,8.00
2023-02-03T13:27:14.429Z,8.00
2023-02-03T13:29:40.793Z,8.00
2023-02-03T13:32:07.225Z,5.67
2023-02-03T13:34:35.691Z,9.00
2023-02-03T13:37:03.110Z,7.67
2023-02-03T13:39:29.446Z,7.67
2023-02-03T13:41:55.798Z,8.00
2023-02-03T13:44:22.146Z,7.33
2023-02-03T13:46:48.549Z,7.00
2023-02-03T13:49:14.921Z,7.67
2023-02-03T13:51:41.250Z,7.00
2023-02-03T13:54:07.788Z,6.33
2023-02-03T13:56:34.127Z,8.00
2023-02-03T13:59:00.502Z,7.00
2023-02-03T14:01:26.877Z,8.00
2023-02-03T14:03:53.327Z,6.00
2023-02-03T14:06:19.726Z,8.00
2023-02-03T14:08:46.099Z,7.33
2023-02-03T14:11:12.540Z,7.00
2023-02-03T14:13:38.892Z,7.00
2023-02-03T14:16:05.294Z,6.00
2023-02-03T14:18:31.658Z,8.00
2023-02-03T14:20:58.037Z,8.00
2023-02-03T14:23:24.401Z,8.00
2023-02-03T14:25:50.765Z,7.00
2023-02-03T14:28:17.247Z,10.33
2023-02-03T14:30:43.745Z,7.00
2023-02-03T14:33:10.151Z,8.00
2023-02-03T14:35:36.466Z,7.33
2023-02-03T14:38:02.859Z,7.00
2023-02-03T14:40:29.273Z,8.67
2023-02-03T14:43:04.828Z,7.00
2023-02-03T14:45:35.994Z,7.67
2023-02-03T14:48:02.343Z,6.67
2023-02-03T14:50:28.688Z,6.33
2023-02-03T14:52:55.201Z,9.00
2023-02-03T14:55:21.517Z,8.00
2023-02-03T14:57:47.866Z,8.00
2023-02-03T15:00:14.298Z,10.00
2023-02-03T15:02:40.627Z,7.67
2023-02-03T15:05:07.100Z,7.33
2023-02-03T15:07:33.426Z,7.00
2023-02-03T15:09:59.776Z,7.33
2023-02-03T15:12:26.103Z,8.33
2023-02-03T15:14:52.453Z,7.00
2023-02-03T15:17:18.817Z,7.33
2023-02-03T15:19:46.071Z,9.00
2023-02-03T15:22:13.312Z,8.00
2023-02-03T15:24:39.725Z,7.33
2023-02-03T15:27:06.069Z,6.67
2023-02-03T15:29:32.446Z,9.33
2023-02-03T15:31:58.856Z,6.33
2023-02-03T15:34:25.276Z,10.00
2023-02-03T15:36:51.714Z,10.00
2023-02-03T15:39:18.075Z,8.67
2023-02-03T15:41:44.476Z,9.33
2023-02-03T15:44:10.867Z,9.00
2023-02-03T15:46:37.237Z,8.67
2023-02-03T15:49:03.722Z,9.33
2023-02-03T15:51:30.083Z,7.67
2023-02-03T15:53:56.463Z,9.00
2023-02-03T15:56:22.839Z,9.00
2023-02-03T15:58:50.086Z,9.50
2023-02-03T16:01:18.105Z,9.33
2023-02-03T16:03:44.632Z,8.00
2023-02-03T16:06:11.873Z,9.25
2023-02-03T16:08:38.243Z,6.00
2023-02-03T16:11:04.629Z,8.00
2023-02-03T16:13:31.889Z,10.25
2023-02-03T16:15:58.270Z,7.00
2023-02-03T16:18:24.646Z,9.67
2023-02-03T16:20:51.090Z,9.33
2023-02-03T16:23:17.474Z,9.67
2023-02-03T16:25:43.806Z,8.67
2023-02-03T16:28:10.236Z,8.33
2023-02-03T16:30:36.606Z,6.00
2023-02-03T16:33:03.016Z,9.67
2023-02-03T16:35:32.467Z,1.00
2023-02-03T16:37:58.974Z,9.00
2023-02-03T16:40:26.207Z,10.00
2023-02-03T16:42:52.578Z,9.00
2023-02-03T16:45:19.830Z,9.00
2023-02-03T16:47:47.104Z,11.00
2023-02-03T16:50:13.468Z,9.00
2023-02-03T16:52:42.071Z,11.00
2023-02-03T16:55:08.464Z,9.67
2023-02-03T16:57:34.825Z,9.00
2023-02-03T17:00:04.001Z,11.17
2023-02-03T17:02:33.214Z,10.00
2023-02-03T17:04:59.684Z,9.67
2023-02-03T17:07:27.118Z,13.00
2023-02-03T17:09:54.381Z,10.50
2023-02-03T17:12:20.791Z,9.50
2023-02-03T17:14:47.644Z,11.00
2023-02-03T17:17:14.072Z,13.00
2023-02-03T17:19:40.484Z,9.67
2023-02-03T17:22:06.948Z,9.67
2023-02-03T17:24:33.329Z,9.33
2023-02-03T17:26:59.874Z,8.00
2023-02-03T17:29:29.012Z,9.33
2023-02-03T17:31:56.242Z,9.00
2023-02-03T17:34:22.830Z,8.67
2023-02-03T17:36:49.221Z,7.00
2023-02-03T17:55:29.459Z,6.00
2023-02-03T17:57:55.954Z,6.00
2023-02-03T18:00:22.303Z,7.00
2023-02-03T18:02:48.676Z,9.00
2023-02-03T18:05:15.026Z,8.00
2023-02-03T18:07:41.345Z,6.33
2023-02-03T18:10:07.678Z,6.00
2023-02-03T18:12:34.024Z,6.00
2023-02-03T18:15:00.412Z,5.00
2023-02-03T18:17:26.764Z,2.00
2023-02-03T18:19:56.155Z,5.67
2023-02-03T18:22:22.785Z,5.00
2023-02-03T18:24:49.129Z,5.33
2023-02-03T18:27:15.479Z,4.67
2023-02-03T18:29:41.847Z,4.00
2023-02-03T18:32:08.249Z,4.00
2023-02-03T18:34:34.592Z,4.33
2023-02-03T18:37:00.927Z,4.00
2023-02-03T18:39:27.280Z,6.00
2023-02-03T18:41:53.792Z,5.00
2023-02-03T18:44:20.162Z,5.67
2023-02-03T18:46:46.542Z,6.00
2023-02-03T18:49:12.925Z,9.00
2023-02-03T18:51:39.283Z,6.00
2023-02-03T18:54:05.823Z,6.33
2023-02-03T18:56:35.072Z,5.33
2023-02-03T18:59:01.558Z,6.33
2023-02-03T19:01:27.958Z,4.33
2023-02-03T19:03:54.346Z,6.00
2023-02-03T19:06:21.075Z,6.00
2023-02-03T19:08:47.427Z,6.33
2023-02-03T19:11:13.772Z,5.00
2023-02-03T19:13:40.155Z,5.00
2023-02-03T19:16:06.582Z,5.33
2023-02-03T19:18:32.952Z,8.00
2023-02-03T19:20:59.322Z,9.00
2023-02-03T19:23:25.962Z,7.33
2023-02-03T19:25:52.309Z,6.00
2023-02-03T19:28:29.976Z,7.33
2023-02-03T19:31:02.922Z,4.33
2023-02-03T19:33:33.346Z,5.00
2023-02-03T19:35:59.707Z,6.00
2023-02-03T19:38:26.123Z,5.67
2023-02-03T19:40:52.516Z,6.00
2023-02-03T19:43:18.900Z,5.33
2023-02-03T19:45:45.547Z,6.00
2023-02-03T19:48:11.913Z,5.00
2023-02-03T19:50:38.282Z,5.33
2023-02-03T19:53:04.678Z,4.33
2023-02-03T19:55:31.068Z,4.33
2023-02-03T19:57:57.425Z,5.00
2023-02-03T20:00:23.771Z,5.33
2023-02-03T20:02:50.106Z,6.00
2023-02-03T20:05:17.364Z,10.00
2023-02-03T20:07:44.703Z,9.50
2023-02-03T20:10:11.089Z,9.00
2023-02-03T20:12:37.617Z,6.00
2023-02-03T20:15:04.039Z,5.67
2023-02-03T20:17:30.395Z,7.67
2023-02-03T20:19:56.899Z,5.33
2023-02-03T20:22:23.214Z,3.67
2023-02-03T20:24:49.548Z,7.33
2023-02-03T20:27:15.915Z,5.00
2023-02-03T20:29:42.297Z,5.00
2023-02-03T20:32:08.928Z,5.67
2023-02-03T20:34:35.363Z,4.67
2023-02-03T20:37:01.737Z,4.33
2023-02-03T20:39:28.100Z,5.33
2023-02-03T20:41:54.456Z,4.00
2023-02-03T20:44:21.723Z,3.25
2023-02-03T20:46:48.161Z,5.33
2023-02-03T20:49:15.559Z,4.25
2023-02-03T20:51:41.902Z,5.67
2023-02-03T20:54:08.241Z,3.67
2023-02-03T20:56:34.612Z,4.67
2023-02-03T20:59:00.980Z,3.33
2023-02-03T21:01:27.355Z,6.00
2023-02-03T21:03:55.022Z,3.00
2023-02-03T21:06:21.405Z,4.33
2023-02-03T21:08:47.743Z,4.00
2023-02-03T21:11:14.194Z,4.00
2023-02-03T21:13:40.582Z,4.67
2023-02-03T21:16:07.152Z,5.00
2023-02-03T21:18:33.530Z,3.67
2023-02-03T21:20:59.937Z,5.00
2023-02-03T21:23:29.064Z,6.00
2023-02-03T21:25:55.444Z,4.67
2023-02-03T21:28:21.785Z,3.33
2023-02-03T21:30:48.212Z,3.67
2023-02-03T21:33:14.626Z,5.00
2023-02-03T21:35:40.964Z,4.33
2023-02-03T21:38:07.503Z,4.00
2023-02-03T21:40:33.864Z,2.67
2023-02-03T21:43:00.217Z,4.00
2023-02-03T21:45:26.588Z,5.33
2023-02-03T21:47:52.948Z,7.00
2023-02-03T21:50:19.603Z,5.00
2023-02-03T21:52:45.926Z,3.00
2023-02-03T21:55:12.295Z,5.67
2023-02-03T21:57:38.649Z,5.67
2023-02-03T22:00:04.976Z,5.33
2023-02-03T22:02:31.383Z,4.00
2023-02-03T22:04:57.777Z,5.67
2023-02-03T22:07:24.140Z,5.00
2023-02-03T22:09:50.499Z,9.33
2023-02-03T22:12:16.859Z,7.00
2023-02-03T22:14:43.227Z,9.00
2023-02-03T22:17:09.748Z,7.33
2023-02-03T22:19:36.151Z,6.00
2023-02-03T22:22:02.470Z,8.33
2023-02-03T22:24:28.808Z,6.67
2023-02-03T22:26:55.257Z,7.67
2023-02-03T22:29:21.806Z,7.33
2023-02-03T22:31:48.221Z,6.00
2023-02-03T22:34:14.627Z,6.00
2023-02-03T22:36:41.103Z,8.00
2023-02-03T22:39:07.478Z,6.67
2023-02-03T22:41:33.820Z,5.00
2023-02-03T22:44:00.153Z,7.00
2023-02-03T22:46:26.643Z,6.00
2023-02-03T22:48:53.218Z,8.33
2023-02-03T22:51:19.563Z,8.00
2023-02-03T22:53:45.915Z,7.00
2023-02-03T22:56:12.577Z,5.67
2023-02-03T22:58:38.933Z,7.00
2023-02-03T23:01:05.320Z,5.00
2023-02-03T23:03:31.780Z,6.00
2023-02-03T23:05:58.142Z,5.00
2023-02-03T23:08:24.720Z,5.33
2023-02-03T23:10:51.081Z,8.00
2023-02-03T23:13:17.452Z,7.33
2023-02-03T23:15:43.847Z,3.33
2023-02-03T23:18:10.268Z,6.33
2023-02-03T23:20:36.625Z,6.67
2023-02-03T23:23:02.965Z,7.00
2023-02-03T23:25:29.329Z,9.00
2023-02-03T23:27:55.703Z,6.00
2023-02-03T23:30:22.072Z,7.00
2023-02-03T23:32:48.404Z,6.33
2023-02-03T23:35:14.784Z,8.00
2023-02-03T23:37:41.127Z,8.33
2023-02-03T23:40:07.462Z,6.33
2023-02-03T23:42:33.820Z,5.33
2023-02-03T23:45:00.162Z,5.00
2023-02-03T23:47:26.612Z,5.67
2023-02-03T23:49:52.950Z,6.67
2023-02-03T23:52:19.287Z,7.00
2023-02-03T23:54:45.654Z,5.33
2023-02-03T23:57:12.853Z,6.25
2023-02-03T23:59:39.165Z,6.67
